createdAt,value
2023-03-24T00:01:21.228Z,15.93
2023-03-24T00:03:52.420Z,15.27
2023-03-24T00:06:22.724Z,15.33
2023-03-24T00:08:51.518Z,17.00
2023-03-24T00:11:21.411Z,16.23
2023-03-24T00:13:51.400Z,16.70
2023-03-24T00:16:21.897Z,16.57
2023-03-24T00:18:53.903Z,16.50
2023-03-24T00:21:24.633Z,16.37
2023-03-24T00:23:55.395Z,15.97
2023-03-24T00:26:25.036Z,16.80
2023-03-24T00:28:55.605Z,16.83
2023-03-24T00:31:24.743Z,16.33
2023-03-24T00:33:53.973Z,16.47
2023-03-24T00:36:24.599Z,17.53
2023-03-24T00:38:54.033Z,16.47
2023-03-24T00:41:24.939Z,15.53
2023-03-24T00:43:58.418Z,15.93
2023-03-24T00:46:30.785Z,16.80
2023-03-24T00:49:03.774Z,15.40
2023-03-24T00:51:34.367Z,15.67
2023-03-24T00:54:03.361Z,14.80
2023-03-24T00:56:33.405Z,15.57
2023-03-24T00:59:03.523Z,16.27
2023-03-24T01:01:35.604Z,14.43
2023-03-24T01:04:07.069Z,16.13
2023-03-24T01:06:37.712Z,16.63
2023-03-24T01:09:07.382Z,16.63
2023-03-24T01:11:40.037Z,15.73
2023-03-24T01:14:12.077Z,15.67
2023-03-24T01:16:40.907Z,15.07
2023-03-24T01:19:09.910Z,15.23
2023-03-24T01:21:39.089Z,15.93
2023-03-24T01:24:08.409Z,15.43
2023-03-24T01:26:37.371Z,13.70
2023-03-24T01:29:06.102Z,16.00
2023-03-24T01:31:36.634Z,16.40
2023-03-24T01:34:05.494Z,14.97
2023-03-24T01:36:33.921Z,15.10
2023-03-24T01:39:02.341Z,14.80
2023-03-24T01:41:35.031Z,15.37
2023-03-24T01:44:23.832Z,15.57
2023-03-24T01:46:53.668Z,15.13
2023-03-24T01:49:22.840Z,14.47
2023-03-24T01:51:55.503Z,13.53
2023-03-24T01:54:27.546Z,15.27
2023-03-24T01:57:00.423Z,14.40
2023-03-24T01:59:31.368Z,16.10
2023-03-24T02:02:04.011Z,15.40
2023-03-24T02:04:35.496Z,14.43
2023-03-24T02:07:09.742Z,14.83
2023-03-24T02:09:38.253Z,14.30
2023-03-24T02:12:06.967Z,14.97
2023-03-24T02:14:35.537Z,15.63
2023-03-24T02:17:33.895Z,14.47
2023-03-24T02:20:33.771Z,15.97
2023-03-24T02:23:31.141Z,15.80
2023-03-24T02:26:33.058Z,16.60
2023-03-24T02:29:18.783Z,14.93
2023-03-24T02:32:10.588Z,15.77
2023-03-24T02:35:11.843Z,15.73
2023-03-24T02:38:20.549Z,15.23
2023-03-24T02:40:58.746Z,16.27
2023-03-24T02:43:39.220Z,14.83
2023-03-24T02:46:14.914Z,16.20
2023-03-24T02:48:55.495Z,14.80
2023-03-24T02:51:31.579Z,16.23
2023-03-24T02:54:08.463Z,16.30
2023-03-24T02:56:40.735Z,16.70
2023-03-24T02:59:13.106Z,16.23
2023-03-24T03:01:45.611Z,15.47
2023-03-24T03:04:17.975Z,17.10
2023-03-24T03:06:52.593Z,15.50
2023-03-24T03:09:22.792Z,16.07
2023-03-24T03:11:57.547Z,15.93
2023-03-24T03:14:30.750Z,16.07
2023-03-24T03:17:02.671Z,15.93
2023-03-24T03:19:34.552Z,17.10
2023-03-24T03:22:06.187Z,15.53
2023-03-24T03:24:39.347Z,15.87
2023-03-24T03:27:14.844Z,17.23
2023-03-24T03:29:48.896Z,16.13
2023-03-24T03:32:24.933Z,16.63
2023-03-24T03:34:58.508Z,16.47
2023-03-24T03:37:33.129Z,16.70
2023-03-24T03:40:06.301Z,16.53
2023-03-24T03:42:36.301Z,17.40
2023-03-24T03:45:05.171Z,15.37
2023-03-24T03:47:34.577Z,16.83
2023-03-24T03:50:04.593Z,16.27
2023-03-24T03:52:33.198Z,16.17
2023-03-24T03:55:01.722Z,15.33
2023-03-24T03:57:30.397Z,15.70
2023-03-24T04:00:07.969Z,16.23
2023-03-24T04:02:45.150Z,15.10
2023-03-24T04:05:27.736Z,15.90
2023-03-24T04:08:23.307Z,16.73
2023-03-24T04:11:23.568Z,15.63
2023-03-24T04:14:03.627Z,16.20
2023-03-24T04:16:45.859Z,15.87
2023-03-24T04:19:25.519Z,14.87
2023-03-24T04:22:14.630Z,15.40
2023-03-24T04:24:51.060Z,15.23
2023-03-24T04:27:27.578Z,16.60
2023-03-24T04:30:08.494Z,16.93
2023-03-24T04:32:46.493Z,16.70
2023-03-24T04:35:26.480Z,16.10
2023-03-24T04:37:56.430Z,16.93
2023-03-24T04:40:26.529Z,16.33
2023-03-24T04:42:56.447Z,16.53
2023-03-24T04:45:25.834Z,15.80
2023-03-24T04:47:58.844Z,18.47
2023-03-24T04:50:32.241Z,16.90
2023-03-24T04:53:00.644Z,16.33
2023-03-24T04:55:49.419Z,16.00
2023-03-24T04:58:18.135Z,17.93
2023-03-24T05:00:47.130Z,15.80
2023-03-24T05:03:17.877Z,16.70
2023-03-24T05:05:48.307Z,16.57
2023-03-24T05:08:17.636Z,17.73
2023-03-24T05:10:46.658Z,19.73
2023-03-24T05:13:16.226Z,21.53
2023-03-24T05:15:44.854Z,19.00
2023-03-24T05:18:13.367Z,17.73
2023-03-24T05:20:43.069Z,17.43
2023-03-24T05:23:11.558Z,16.93
2023-03-24T05:25:39.976Z,16.53
2023-03-24T05:28:08.220Z,17.30
2023-03-24T05:30:36.629Z,18.17
2023-03-24T05:33:05.033Z,16.63
2023-03-24T05:35:33.369Z,16.83
2023-03-24T05:38:03.083Z,18.50
2023-03-24T05:40:31.456Z,16.37
2023-03-24T05:42:59.746Z,16.93
2023-03-24T05:45:29.568Z,17.63
2023-03-24T05:47:58.052Z,16.87
2023-03-24T05:50:26.552Z,16.20
2023-03-24T05:52:54.813Z,16.53
2023-03-24T05:55:25.251Z,14.93
2023-03-24T05:57:54.041Z,16.00
2023-03-24T06:00:23.541Z,15.83
2023-03-24T06:02:52.356Z,15.90
2023-03-24T06:05:21.107Z,15.47
2023-03-24T06:07:49.529Z,15.10
2023-03-24T06:10:18.538Z,15.67
2023-03-24T06:12:48.272Z,16.17
2023-03-24T06:15:17.589Z,16.43
2023-03-24T06:17:46.288Z,14.63
2023-03-24T06:20:16.279Z,15.90
2023-03-24T06:22:46.161Z,15.27
2023-03-24T06:25:16.869Z,14.10
2023-03-24T06:27:47.217Z,16.40
2023-03-24T06:30:16.890Z,14.67
2023-03-24T06:32:46.935Z,15.30
2023-03-24T06:35:15.945Z,15.80
2023-03-24T06:37:44.914Z,13.97
2023-03-24T06:40:16.354Z,16.00
2023-03-24T06:42:45.000Z,14.67
2023-03-24T06:45:14.808Z,15.17
2023-03-24T06:47:43.124Z,15.93
2023-03-24T06:50:12.414Z,14.80
2023-03-24T06:52:41.377Z,14.83
2023-03-24T06:55:10.453Z,13.93
2023-03-24T06:57:38.766Z,13.73
2023-03-24T07:00:10.389Z,13.03
2023-03-24T07:02:40.518Z,14.50
2023-03-24T07:05:11.074Z,13.77
2023-03-24T07:10:14.183Z,13.87
2023-03-24T07:12:42.535Z,13.13
2023-03-24T07:15:11.609Z,12.03
2023-03-24T07:17:42.742Z,11.93
2023-03-24T07:20:11.640Z,13.33
2023-03-24T07:22:39.959Z,11.77
2023-03-24T07:25:09.022Z,11.77
2023-03-24T07:27:39.455Z,12.97
2023-03-24T07:30:10.345Z,11.47
2023-03-24T07:32:46.360Z,12.20
2023-03-24T07:35:14.772Z,12.40
2023-03-24T07:37:43.766Z,12.00
2023-03-24T07:40:13.868Z,11.17
2023-03-24T07:42:43.158Z,9.83
2023-03-24T07:45:13.140Z,10.50
2023-03-24T07:47:45.457Z,9.83
2023-03-24T07:50:15.173Z,10.47
2023-03-24T07:52:48.079Z,10.27
2023-03-24T07:55:16.865Z,10.07
2023-03-24T07:57:48.293Z,10.37
2023-03-24T08:00:18.248Z,11.67
2023-03-24T08:02:49.638Z,11.13
2023-03-24T08:05:19.612Z,11.57
2023-03-24T08:07:53.598Z,12.53
2023-03-24T08:10:23.358Z,11.50
2023-03-24T08:12:52.047Z,10.60
2023-03-24T08:15:20.545Z,11.10
2023-03-24T08:17:51.891Z,12.10
2023-03-24T08:20:21.400Z,11.43
2023-03-24T08:22:50.840Z,12.17
2023-03-24T08:25:20.365Z,11.90
2023-03-24T08:27:49.058Z,11.83
2023-03-24T08:30:20.242Z,11.70
2023-03-24T08:32:52.194Z,10.67
2023-03-24T08:35:23.235Z,11.40
2023-03-24T08:37:51.745Z,11.00
2023-03-24T08:40:23.437Z,11.23
2023-03-24T08:42:53.663Z,11.13
2023-03-24T08:45:24.041Z,11.37
2023-03-24T08:47:55.073Z,11.57
2023-03-24T08:50:25.859Z,12.33
2023-03-24T08:52:56.331Z,10.53
2023-03-24T08:55:25.880Z,10.57
2023-03-24T08:57:54.729Z,10.67
2023-03-24T09:00:23.564Z,11.33
2023-03-24T09:02:55.014Z,10.73
2023-03-24T09:05:40.885Z,11.27
2023-03-24T09:08:12.946Z,10.90
2023-03-24T09:10:53.260Z,9.67
2023-03-24T09:13:22.381Z,10.37
2023-03-24T09:15:52.557Z,9.03
2023-03-24T09:18:23.577Z,9.57
2023-03-24T09:20:52.421Z,10.27
2023-03-24T09:23:21.624Z,10.47
2023-03-24T09:25:51.031Z,9.60
2023-03-24T09:28:19.731Z,9.80
2023-03-24T09:30:48.663Z,10.77
2023-03-24T09:33:17.310Z,9.37
2023-03-24T09:35:47.016Z,9.27
2023-03-24T09:38:15.380Z,8.70
2023-03-24T09:40:44.229Z,9.07
2023-03-24T09:43:21.659Z,9.63
2023-03-24T09:45:52.538Z,9.07
2023-03-24T09:48:27.341Z,8.17
2023-03-24T09:51:01.331Z,8.33
2023-03-24T09:53:37.062Z,8.53
2023-03-24T09:56:13.324Z,8.60
2023-03-24T09:58:42.737Z,7.20
2023-03-24T10:01:15.999Z,7.63
2023-03-24T10:03:45.099Z,7.93
2023-03-24T10:06:21.890Z,7.47
2023-03-24T10:08:55.424Z,9.25
2023-03-24T10:11:30.165Z,9.65
2023-03-24T10:14:14.485Z,8.70
2023-03-24T10:16:50.935Z,8.27
2023-03-24T10:19:29.613Z,8.47
2023-03-24T10:22:07.401Z,8.18
2023-03-24T10:24:42.312Z,7.35
2023-03-24T10:27:17.414Z,8.73
2023-03-24T10:29:47.146Z,9.05
2023-03-24T10:32:22.125Z,8.73
2023-03-24T10:34:55.912Z,8.57
2023-03-24T10:37:25.614Z,8.20
2023-03-24T10:39:53.963Z,8.00
2023-03-24T10:42:29.816Z,7.50
2023-03-24T10:44:58.365Z,7.00
2023-03-24T10:47:30.746Z,7.60
2023-03-24T10:50:14.323Z,6.45
2023-03-24T10:52:48.998Z,6.43
2023-03-24T10:55:19.218Z,6.82
2023-03-24T10:57:50.858Z,6.57
2023-03-24T11:00:27.022Z,6.85
2023-03-24T11:02:58.858Z,5.90
2023-03-24T11:05:33.316Z,5.57
2023-03-24T11:08:16.514Z,6.18
2023-03-24T11:10:45.252Z,6.60
2023-03-24T11:13:19.769Z,4.97
2023-03-24T11:15:56.944Z,6.10
2023-03-24T11:18:25.646Z,5.85
2023-03-24T11:20:58.316Z,5.85
2023-03-24T11:23:32.316Z,6.45
2023-03-24T11:26:09.345Z,4.97
2023-03-24T11:28:41.269Z,5.53
2023-03-24T11:31:11.893Z,5.95
2023-03-24T11:33:47.670Z,6.47
2023-03-24T11:36:40.284Z,6.43
2023-03-24T11:39:14.805Z,6.40
2023-03-24T11:41:45.668Z,5.90
2023-03-24T11:44:21.004Z,6.78
2023-03-24T11:46:53.469Z,6.57
2023-03-24T11:49:28.919Z,5.28
2023-03-24T11:51:57.569Z,4.93
2023-03-24T11:54:33.003Z,5.25
2023-03-24T11:57:05.676Z,5.50
2023-03-24T11:59:38.737Z,5.25
2023-03-24T12:02:17.401Z,5.60
2023-03-24T12:05:10.588Z,5.00
2023-03-24T12:08:08.077Z,6.18
2023-03-24T12:10:51.176Z,5.10
2023-03-24T12:13:33.018Z,4.80
2023-03-24T12:16:20.932Z,4.85
2023-03-24T12:19:21.695Z,5.10
2023-03-24T12:21:58.435Z,5.53
2023-03-24T12:24:44.059Z,5.10
2023-03-24T12:27:26.522Z,5.57
2023-03-24T12:30:02.634Z,4.50
2023-03-24T12:32:48.081Z,4.50
2023-03-24T12:35:52.090Z,5.95
2023-03-24T12:38:40.130Z,4.70
2023-03-24T12:41:25.118Z,4.63
2023-03-24T12:44:12.256Z,4.60
2023-03-24T12:46:49.339Z,4.20
2023-03-24T12:49:42.534Z,4.43
2023-03-24T12:52:29.412Z,3.70
2023-03-24T12:55:05.146Z,4.30
2023-03-24T12:57:39.831Z,3.33
2023-03-24T13:00:17.297Z,3.95
2023-03-24T13:02:52.532Z,4.05
2023-03-24T13:05:26.657Z,3.58
2023-03-24T13:07:59.026Z,3.63
2023-03-24T13:10:29.806Z,3.40
2023-03-24T13:13:03.598Z,3.05
2023-03-24T13:15:40.057Z,3.50
2023-03-24T13:18:20.950Z,3.13
2023-03-24T13:20:53.802Z,3.20
2023-03-24T13:23:33.919Z,3.45
2023-03-24T13:26:12.151Z,3.03
2023-03-24T13:28:47.730Z,3.30
2023-03-24T13:31:18.970Z,2.95
2023-03-24T13:33:47.790Z,3.70
2023-03-24T13:36:32.044Z,3.42
2023-03-24T13:39:05.551Z,3.17
2023-03-24T13:41:38.207Z,2.95
2023-03-24T13:44:16.460Z,3.25
2023-03-24T13:47:21.058Z,3.03
2023-03-24T13:49:59.954Z,3.67
2023-03-24T13:52:33.775Z,3.72
2023-03-24T13:55:09.165Z,3.17
2023-03-24T13:57:42.563Z,2.42
2023-03-24T14:00:21.462Z,3.40
2023-03-24T14:02:52.742Z,2.85
2023-03-24T14:05:36.423Z,2.38
2023-03-24T14:08:17.063Z,2.78
2023-03-24T14:10:47.333Z,2.97
2023-03-24T14:13:36.730Z,2.85
2023-03-24T14:16:37.992Z,2.90
2023-03-24T14:19:23.656Z,2.72
2023-03-24T14:22:00.382Z,2.75
2023-03-24T14:24:31.431Z,2.60
2023-03-24T14:26:59.946Z,2.53
2023-03-24T14:29:43.230Z,3.28
2023-03-24T14:32:20.439Z,2.83
2023-03-24T14:34:57.057Z,2.70
2023-03-24T14:37:27.289Z,2.50
2023-03-24T14:39:58.138Z,2.42
2023-03-24T14:43:11.926Z,2.60
2023-03-24T14:46:00.009Z,2.58
2023-03-24T14:48:39.459Z,2.78
2023-03-24T14:51:37.533Z,2.08
2023-03-24T14:54:08.459Z,2.42
2023-03-24T14:56:40.592Z,2.67
2023-03-24T14:59:16.957Z,2.80
2023-03-24T15:01:49.763Z,2.10
2023-03-24T15:04:18.239Z,2.45
2023-03-24T15:06:50.657Z,1.75
2023-03-24T15:09:19.868Z,2.67
2023-03-24T15:11:50.199Z,2.25
2023-03-24T15:14:28.545Z,2.65
2023-03-24T15:16:59.736Z,2.20
2023-03-24T15:19:32.709Z,2.50
2023-03-24T15:22:04.092Z,2.58
2023-03-24T15:24:35.538Z,2.60
2023-03-24T15:27:27.726Z,2.00
2023-03-24T15:29:59.183Z,2.03
2023-03-24T15:32:32.239Z,2.20
2023-03-24T15:35:05.797Z,2.20
2023-03-24T15:37:40.576Z,2.60
2023-03-24T15:40:37.043Z,2.70
2023-03-24T15:43:08.030Z,2.35
2023-03-24T15:45:38.827Z,3.47
2023-03-24T15:48:10.097Z,3.38
2023-03-24T15:50:40.139Z,3.30
2023-03-24T15:53:25.909Z,3.22
2023-03-24T15:56:08.718Z,3.40
2023-03-24T15:58:48.928Z,2.83
2023-03-24T16:01:20.132Z,3.22
2023-03-24T16:03:52.123Z,3.30
2023-03-24T16:06:30.221Z,3.58
2023-03-24T16:09:02.609Z,3.25
2023-03-24T16:11:31.354Z,2.95
2023-03-24T16:14:00.288Z,3.28
2023-03-24T16:16:30.163Z,3.35
2023-03-24T16:18:59.554Z,2.60
2023-03-24T16:21:29.622Z,2.92
2023-03-24T16:24:00.689Z,2.83
2023-03-24T16:26:31.128Z,3.65
2023-03-24T16:29:04.680Z,2.92
2023-03-24T16:31:35.606Z,2.80
2023-03-24T16:34:03.997Z,3.25
2023-03-24T16:36:32.500Z,3.22
2023-03-24T16:39:03.192Z,3.72
2023-03-24T16:41:31.478Z,3.25
2023-03-24T16:43:59.779Z,3.40
2023-03-24T16:46:33.572Z,3.38
2023-03-24T16:49:03.030Z,3.55
2023-03-24T16:51:31.335Z,3.70
2023-03-24T16:54:01.320Z,3.55
2023-03-24T16:56:30.297Z,4.05
2023-03-24T16:58:59.702Z,4.40
2023-03-24T17:01:33.791Z,4.23
2023-03-24T17:04:04.017Z,4.45
2023-03-24T17:06:33.956Z,4.43
2023-03-24T17:09:06.004Z,4.13
2023-03-24T17:11:36.989Z,4.20
2023-03-24T17:14:08.412Z,3.87
2023-03-24T17:16:38.850Z,3.43
2023-03-24T17:19:07.587Z,4.10
2023-03-24T17:21:38.305Z,4.20
2023-03-24T17:24:10.721Z,4.60
2023-03-24T17:26:39.434Z,4.40
2023-03-24T17:29:07.928Z,5.07
2023-03-24T17:31:36.316Z,5.87
2023-03-24T17:34:18.693Z,6.13
2023-03-24T17:36:51.336Z,4.73
2023-03-24T17:39:22.133Z,5.20
2023-03-24T17:41:50.495Z,5.20
2023-03-24T17:44:18.800Z,5.53
2023-03-24T17:46:47.156Z,4.83
2023-03-24T17:49:15.563Z,4.60
2023-03-24T17:51:43.870Z,4.50
2023-03-24T17:54:13.361Z,4.97
2023-03-24T17:56:43.329Z,5.00
2023-03-24T17:59:11.643Z,5.17
2023-03-24T18:01:40.501Z,5.10
2023-03-24T18:04:09.179Z,6.10
2023-03-24T18:06:38.628Z,5.70
2023-03-24T18:09:08.761Z,5.60
2023-03-24T18:11:37.574Z,5.50
2023-03-24T18:14:09.236Z,6.40
2023-03-24T18:16:39.245Z,6.20
2023-03-24T18:19:07.848Z,5.77
2023-03-24T18:21:36.150Z,6.23
2023-03-24T18:24:04.677Z,6.13
2023-03-24T18:26:33.697Z,6.47
2023-03-24T18:29:01.981Z,6.50
2023-03-24T18:31:32.820Z,6.73
2023-03-24T18:34:04.219Z,6.83
2023-03-24T18:36:32.576Z,7.13
2023-03-24T18:39:03.682Z,7.00
2023-03-24T18:41:32.109Z,7.27
2023-03-24T18:44:01.419Z,7.20
2023-03-24T18:46:31.457Z,7.40
2023-03-24T18:48:59.985Z,7.53
2023-03-24T18:51:34.036Z,7.57
2023-03-24T18:54:02.621Z,7.27
2023-03-24T18:56:31.236Z,7.17
2023-03-24T18:58:59.623Z,7.50
2023-03-24T19:01:30.314Z,7.03
2023-03-24T19:04:00.927Z,7.47
2023-03-24T19:06:31.217Z,7.93
2023-03-24T19:09:00.533Z,7.53
2023-03-24T19:11:28.952Z,8.47
2023-03-24T19:13:58.085Z,7.83
2023-03-24T19:16:26.493Z,8.57
2023-03-24T19:18:57.905Z,8.43
2023-03-24T19:21:27.816Z,8.87
2023-03-24T19:23:57.172Z,9.10
2023-03-24T19:26:25.978Z,10.37
2023-03-24T19:28:54.447Z,9.10
2023-03-24T19:31:22.784Z,9.53
2023-03-24T19:33:52.227Z,10.10
2023-03-24T19:36:20.648Z,10.20
2023-03-24T19:38:50.993Z,10.33
2023-03-24T19:41:19.283Z,10.30
2023-03-24T19:43:47.635Z,9.60
2023-03-24T19:46:17.223Z,9.60
2023-03-24T19:48:45.604Z,9.67
2023-03-24T19:51:13.903Z,8.77
2023-03-24T19:53:42.182Z,9.20
2023-03-24T19:56:12.138Z,8.77
2023-03-24T19:58:40.478Z,8.73
2023-03-24T20:01:08.752Z,9.23
2023-03-24T20:03:38.032Z,8.93
2023-03-24T20:06:09.029Z,9.67
2023-03-24T20:08:37.443Z,8.40
2023-03-24T20:11:08.621Z,8.90
2023-03-24T20:13:38.344Z,9.60
2023-03-24T20:16:07.352Z,9.37
2023-03-24T20:18:35.950Z,9.60
2023-03-24T20:21:06.424Z,10.00
2023-03-24T20:23:34.727Z,10.80
2023-03-24T20:26:03.134Z,10.90
2023-03-24T20:28:31.528Z,10.63
2023-03-24T20:31:02.177Z,10.30
2023-03-24T20:33:31.181Z,10.23
2023-03-24T20:35:59.849Z,12.30
2023-03-24T20:38:28.749Z,10.10
2023-03-24T20:41:01.199Z,11.30
2023-03-24T20:43:34.981Z,11.83
2023-03-24T20:46:05.857Z,11.40
2023-03-24T20:48:34.418Z,10.53
2023-03-24T20:51:03.895Z,10.57
2023-03-24T20:53:35.065Z,9.13
2023-03-24T20:56:06.653Z,10.47
2023-03-24T20:58:35.968Z,10.23
2023-03-24T21:01:08.738Z,9.40
2023-03-24T21:03:37.968Z,9.40
2023-03-24T21:06:06.689Z,9.20
2023-03-24T21:08:35.017Z,10.23
2023-03-24T21:11:03.354Z,8.83
2023-03-24T21:13:37.448Z,10.20
2023-03-24T21:16:09.008Z,9.07
2023-03-24T21:18:38.018Z,9.57
2023-03-24T21:21:07.441Z,10.47
2023-03-24T21:23:39.252Z,10.63
2023-03-24T21:26:09.399Z,10.47
2023-03-24T21:28:37.678Z,10.67
2023-03-24T21:31:11.444Z,11.30
2023-03-24T21:33:41.054Z,10.93
2023-03-24T21:36:10.972Z,11.57
2023-03-24T21:38:40.197Z,11.53
2023-03-24T21:41:09.078Z,11.83
2023-03-24T21:43:37.498Z,11.60
2023-03-24T21:46:06.776Z,11.77
2023-03-24T21:48:40.182Z,11.80
2023-03-24T21:51:08.634Z,12.47
2023-03-24T21:53:36.975Z,12.40
2023-03-24T21:56:05.640Z,12.33
2023-03-24T21:58:34.947Z,12.30
2023-03-24T22:01:03.391Z,12.00
2023-03-24T22:03:34.571Z,12.63
2023-03-24T22:06:05.028Z,12.93
2023-03-24T22:08:33.705Z,13.83
2023-03-24T22:11:04.417Z,11.83
2023-03-24T22:13:34.586Z,12.33
2023-03-24T22:16:04.973Z,12.67
2023-03-24T22:18:35.446Z,13.17
2023-03-24T22:21:07.696Z,12.37
2023-03-24T22:23:38.163Z,12.23
2023-03-24T22:26:09.278Z,12.47
2023-03-24T22:28:38.243Z,11.60
2023-03-24T22:31:08.252Z,12.03
2023-03-24T22:33:36.708Z,12.53
2023-03-24T22:36:07.351Z,12.10
2023-03-24T22:38:36.063Z,13.93
2023-03-24T22:41:06.624Z,13.13
2023-03-24T22:43:36.389Z,13.87
2023-03-24T22:46:05.240Z,13.30
2023-03-24T22:48:33.545Z,12.67
2023-03-24T22:51:02.311Z,14.67
2023-03-24T22:53:32.246Z,13.63
2023-03-24T22:56:00.536Z,14.13
2023-03-24T22:58:28.985Z,12.97
2023-03-24T23:00:58.015Z,12.80
2023-03-24T23:03:26.516Z,14.13
2023-03-24T23:05:55.252Z,13.70
2023-03-24T23:08:24.945Z,13.60
2023-03-24T23:10:55.803Z,13.10
2023-03-24T23:13:25.417Z,12.87
2023-03-24T23:15:54.572Z,14.00
2023-03-24T23:18:22.933Z,13.90
2023-03-24T23:20:51.304Z,13.63
2023-03-24T23:23:19.603Z,12.97
2023-03-24T23:25:48.651Z,13.23
2023-03-24T23:28:18.682Z,14.17
2023-03-24T23:30:47.003Z,13.43
2023-03-24T23:33:15.377Z,13.90
2023-03-24T23:35:43.793Z,14.67
2023-03-24T23:38:12.177Z,16.37
2023-03-24T23:40:40.502Z,14.47
2023-03-24T23:43:08.830Z,14.47
2023-03-24T23:45:38.805Z,13.53
2023-03-24T23:48:08.138Z,15.10
2023-03-24T23:50:36.477Z,14.20
2023-03-24T23:53:04.808Z,14.53
2023-03-24T23:55:33.097Z,15.57
2023-03-24T23:58:01.940Z,14.00
